Ana Sayfa
METAR-TAF:

METAR-TAF

Havaalanları :

Siler City, Kuzey Carolina, Amerika Birleşik Devletleri

Enlem: 35-42-15N, Boylam: 079-30-15W, yükseklik: 187 m

Güncel hava durumu gözlemi

Rapor saat 17:15 UTC de 29 dakika önce yapıldı.
Rüzgar kuzey/kuzeydoğudan 3 kt
Sıcaklık 7°C
Nem 31%
Basınç 1023 hPa
Görüş mesafesi: 16.1 km
4400 ft yükseklikte çok bulutlu

METAR: KSCR 071715Z AUTO 03003KT 10SM OVC044 07/M09 A3021 RMK AO2 T00721095

Saat: 12:44 (17:44 UTC)


TAF: eksik

4.000'den fazla havaalanı için hava durumu gözlemleri ve tahminleri (METAR ve TAF raporları).

Kullanılabilir istasyonlar harita üzerinde sarı ve kırmızı noktalarla gösterilir.

İstasyonun adını görmek için fareyi noktanın üzerinde gezdirin.

Sonrasında hava gözlem ve tahminlerini görmek için tıklayın.

Haritayı değiştirmek için: yaklaştırmak için siyah artı işaretli yeşil düğmeye ve uzaklaştırmak için de eksi işaretli düğmeye hızla tıklayın; bitişik haritalar için yeşil okları kullanın.


METAR-TAF: